Time;durP1;ratioP1;P1;durP2;ratioP2;P2;SDS_P1;SDS_P2;PMS_P1;PMS_P2;Temp;Humidity;BMP_temperature;BMP_pressure;BME280_temperature;BME280_humidity;BME280_pressure;Samples;Min_cycle;Max_cycle;Signal;HPM_P1;HPM_P2
2022/12/14 00:01:43;;;;;;;42.85;13.85;;;;;;;-15.18;52.30;98827.56;6295776;28;19920;-67
2022/12/14 00:04:46;;;;;;;46.45;14.63;;;;;;;-15.10;52.37;98845.75;6295596;28;20032;-67
2022/12/14 00:07:51;;;;;;;31.77;12.93;;;;;;;-15.11;52.87;98839.84;6294906;28;20041;-66
2022/12/14 00:10:57;;;;;;;34.10;13.60;;;;;;;-15.11;52.85;98839.84;6295014;28;20082;-67
2022/12/14 00:14:02;;;;;;;38.45;15.10;;;;;;;-15.13;52.63;98846.44;6294804;28;20057;-66
2022/12/14 00:17:04;;;;;;;32.55;13.15;;;;;;;-15.12;52.83;98843.13;6294895;28;20052;-66
2022/12/14 00:20:08;;;;;;;36.88;14.35;;;;;;;-15.19;52.45;98838.47;6295406;28;20498;-67
2022/12/14 00:23:14;;;;;;;48.20;14.88;;;;;;;-15.18;52.63;98850.28;6295326;28;20037;-66
2022/12/14 00:26:16;;;;;;;;;;;;;;;-15.15;52.68;98845.44;6295736;28;20079;-67
2022/12/14 00:29:22;;;;;;;33.03;12.40;;;;;;;-15.23;52.24;98856.69;6295400;28;19916;-67
2022/12/14 00:32:26;;;;;;;31.00;13.27;;;;;;;-15.28;52.22;98852.97;6294710;28;20056;-67
2022/12/14 00:35:32;;;;;;;34.25;12.00;;;;;;;-15.28;52.64;98860.53;6294943;28;20048;-67
2022/12/14 00:38:39;;;;;;;36.42;13.07;;;;;;;-15.30;52.86;98857.94;6295086;28;20040;-66
2022/12/14 00:41:43;;;;;;;32.72;12.85;;;;;;;-15.32;52.52;98859.47;6294694;28;20060;-66
2022/12/14 00:44:47;;;;;;;31.38;11.77;;;;;;;-15.34;52.53;98857.59;6294077;28;20048;-66
2022/12/14 00:47:48;;;;;;;25.13;11.68;;;;;;;-15.36;52.87;98851.59;6294487;28;20456;-67
2022/12/14 00:50:56;;;;;;;29.33;11.80;;;;;;;-15.40;52.93;98851.41;6295195;28;20044;-67
2022/12/14 00:53:58;;;;;;;24.90;10.10;;;;;;;-15.36;52.98;98849.06;6294868;28;20048;-67
2022/12/14 00:57:04;;;;;;;;;;;;;;;-15.27;53.33;98832.88;6295368;28;20414;-66
2022/12/14 01:00:06;;;;;;;30.52;11.43;;;;;;;-15.26;52.96;98843.84;6294819;28;20448;-66
2022/12/14 01:03:10;;;;;;;24.88;11.15;;;;;;;-15.21;52.55;98845.03;6293031;28;20056;-67
2022/12/14 01:06:17;;;;;;;21.98;10.15;;;;;;;-15.19;53.07;98846.91;6294468;28;20422;-67
2022/12/14 01:09:24;;;;;;;31.52;10.75;;;;;;;-15.12;53.11;98843.13;6297989;28;20092;-67
2022/12/14 01:12:27;;;;;;;29.35;10.27;;;;;;;-15.05;52.53;98847.81;6299024;28;20032;-67
2022/12/14 01:15:29;;;;;;;26.85;8.77;;;;;;;-15.05;52.65;98845.28;6299060;28;20044;-67
2022/12/14 01:18:33;;;;;;;29.63;10.65;;;;;;;-15.04;52.85;98844.50;6299058;28;20402;-67
2022/12/14 01:21:34;;;;;;;24.98;9.40;;;;;;;-14.98;52.87;98837.34;6298323;28;20052;-67
2022/12/14 01:24:36;;;;;;;21.58;8.95;;;;;;;-14.93;53.13;98836.00;6298265;28;20517;-68
2022/12/14 01:27:38;;;;;;;18.20;8.30;;;;;;;-14.93;53.18;98836.00;6298720;28;20032;-67
2022/12/14 01:30:40;;;;;;;13.15;6.70;;;;;;;-14.87;53.18;98837.19;6298733;28;20041;-66
2022/12/14 01:33:44;;;;;;;24.63;8.55;;;;;;;-14.85;53.48;98833.97;6298720;28;20041;-67
2022/12/14 01:36:48;;;;;;;22.13;8.93;;;;;;;-14.81;53.57;98842.63;6298675;28;20047;-67
2022/12/14 01:39:52;;;;;;;27.95;8.88;;;;;;;-14.84;53.64;98840.78;6298768;28;20127;-67
2022/12/14 01:42:56;;;;;;;21.13;9.15;;;;;;;-14.83;53.37;98836.59;6298517;28;20044;-67
2022/12/14 01:45:59;;;;;;;;;;;;;;;-14.81;53.66;98842.63;6298820;28;20430;-67
2022/12/14 01:49:29;;;;;;;27.00;9.80;;;;;;;-14.86;53.25;98846.50;6298252;28;19920;-67
2022/12/14 01:52:43;;;;;;;28.92;11.05;;;;;;;-14.87;53.46;98854.84;6297530;28;20049;-66
2022/12/14 01:55:52;;;;;;;31.50;11.18;;;;;;;-14.95;53.43;98857.75;6298246;28;20433;-67
2022/12/14 01:59:00;;;;;;;22.23;9.52;;;;;;;-15.05;53.10;98850.34;6297721;28;20063;-67
2022/12/14 02:02:07;;;;;;;24.80;9.13;;;;;;;-15.14;53.04;98843.78;6298219;28;20040;-68
2022/12/14 02:05:11;;;;;;;19.50;8.82;;;;;;;-15.22;52.96;98850.88;6297410;28;20049;-68
2022/12/14 02:08:13;;;;;;;;;;;;;;;-15.25;53.18;98850.69;6297888;28;20044;-67
2022/12/14 02:11:26;;;;;;;25.17;10.15;;;;;;;-15.39;53.05;98838.00;6297919;28;19920;-66
2022/12/14 02:14:27;;;;;;;33.72;10.00;;;;;;;-15.47;52.90;98839.13;6297932;28;20607;-67
2022/12/14 02:17:32;;;;;;;39.00;12.95;;;;;;;-15.48;53.40;98846.56;6297180;28;20048;-67
2022/12/14 02:20:47;;;;;;;34.92;12.15;;;;;;;-15.50;53.44;98849.00;6296936;28;20045;-67
2022/12/14 02:24:06;;;;;;;33.28;12.48;;;;;;;-15.53;53.21;98848.81;6296655;28;20391;-67
2022/12/14 02:27:28;;;;;;;44.53;13.13;;;;;;;-15.60;52.98;98854.19;6297022;28;20498;-67
2022/12/14 02:30:39;;;;;;;32.38;14.32;;;;;;;-15.68;53.12;98847.75;6297008;28;20052;-68
2022/12/14 02:33:55;;;;;;;39.95;15.70;;;;;;;-15.73;53.46;98844.06;6297024;28;20242;-67
2022/12/14 02:37:44;;;;;;;36.75;14.48;;;;;;;-15.73;53.43;98844.06;6297125;28;20048;-67
2022/12/14 02:40:58;;;;;;;48.47;17.15;;;;;;;-15.77;53.29;98844.63;6296598;28;20513;-67
2022/12/14 02:44:36;;;;;;;42.80;15.38;;;;;;;-15.83;53.57;98849.25;6296643;28;20052;-67
2022/12/14 02:47:56;;;;;;;48.60;16.35;;;;;;;-15.90;53.07;98841.25;6296641;28;20048;-68
2022/12/14 02:51:39;;;;;;;50.08;16.23;;;;;;;-15.93;53.52;98847.75;6296336;28;20051;-66
2022/12/14 02:55:00;;;;;;;55.92;16.45;;;;;;;-15.95;53.34;98836.66;6260078;28;20365;-68
2022/12/14 02:58:13;;;;;;;61.33;17.00;;;;;;;-15.94;53.29;98849.34;6296290;28;20044;-66
2022/12/14 03:01:26;;;;;;;52.27;23.43;;;;;;;-15.91;53.13;98849.56;6296682;28;20095;-66
2022/12/14 03:04:30;;;;;;;51.28;17.63;;;;;;;-15.88;53.23;98839.72;6296395;28;20040;-67
2022/12/14 03:07:33;;;;;;;;;;;;;;;-15.82;53.68;98843.41;6296619;28;20052;-66
2022/12/14 03:10:43;;;;;;;64.35;16.52;;;;;;;-15.88;53.15;98859.00;6295787;28;19924;-67
2022/12/14 03:13:50;;;;;;;47.38;16.38;;;;;;;-15.93;53.10;98851.13;6294829;28;20044;-67
2022/12/14 03:16:55;;;;;;;61.17;16.60;;;;;;;-16.04;53.09;98841.94;6296113;28;20044;-68
2022/12/14 03:20:08;;;;;;;53.85;16.33;;;;;;;-16.05;53.22;98856.94;6295948;28;20033;-66
2022/12/14 03:23:23;;;;;;;46.20;16.27;;;;;;;-16.08;53.38;98850.03;6295957;28;20052;-66
2022/12/14 03:26:38;;;;;;;81.35;18.30;;;;;;;-16.08;53.32;98852.56;6295385;28;20550;-66
2022/12/14 03:29:59;;;;;;;73.32;18.65;;;;;;;-16.09;53.53;98854.22;6295725;28;20044;-67
2022/12/14 03:33:10;;;;;;;56.67;19.40;;;;;;;-16.14;53.47;98839.53;6295660;28;20044;-68
2022/12/14 03:36:25;;;;;;;52.15;18.92;;;;;;;-16.10;53.31;98856.66;6296015;28;20056;-67
2022/12/14 03:39:33;;;;;;;55.78;18.48;;;;;;;-16.05;53.16;98850.25;6294112;28;20174;-67
2022/12/14 03:43:07;;;;;;;73.45;19.10;;;;;;;-16.00;53.50;98853.97;6295758;28;20082;-67
2022/12/14 03:46:21;;;;;;;60.33;17.85;;;;;;;-15.99;53.56;98853.22;6293997;28;20055;-66
2022/12/14 03:50:07;;;;;;;62.40;21.77;;;;;;;-15.99;53.65;98855.75;6295001;28;20050;-68
2022/12/14 03:53:15;;;;;;;73.63;23.00;;;;;;;-15.99;53.47;98860.78;6263955;28;20063;-67
2022/12/14 03:56:30;;;;;;;69.57;21.52;;;;;;;-15.99;53.64;98870.88;6295172;28;20049;-66
2022/12/14 03:59:37;;;;;;;62.17;21.13;;;;;;;-15.97;53.60;98873.50;6294902;28;20052;-67
2022/12/14 04:02:59;;;;;;;63.90;20.55;;;;;;;-15.94;53.66;98879.63;6295228;28;20048;-67
2022/12/14 04:06:08;;;;;;;42.65;15.43;;;;;;;-15.88;53.74;98875.03;6295586;28;20041;-67
2022/12/14 04:09:35;;;;;;;44.22;14.38;;;;;;;-15.76;53.85;98869.09;6295314;28;20072;-67
2022/12/14 04:19:37;;;;;;;47.17;17.40;;;;;;;-15.35;53.71;98883.63;6294453;28;20057;-67
2022/12/14 04:22:47;;;;;;;65.25;24.40;;;;;;;-15.26;53.56;98874.16;6295289;28;20119;-67
2022/12/14 04:26:04;;;;;;;61.00;21.00;;;;;;;-15.22;53.54;98876.13;6295179;28;20040;-68
2022/12/14 04:33:45;;;;;;;67.15;23.30;;;;;;;-15.20;53.55;98884.66;6295171;28;20048;-67
2022/12/14 04:36:47;;;;;;;58.50;19.97;;;;;;;-15.15;53.46;98883.31;6294425;28;20063;-67
2022/12/14 04:39:55;;;;;;;63.42;21.35;;;;;;;-15.13;53.37;98881.78;6294865;28;20135;-67
2022/12/14 04:43:08;;;;;;;57.03;20.20;;;;;;;-15.07;53.23;98877.13;6296505;28;20044;-66
2022/12/14 04:46:16;;;;;;;53.28;19.00;;;;;;;-15.05;53.12;98880.66;6299660;28;20039;-66
2022/12/14 04:49:28;;;;;;;62.08;23.75;;;;;;;-15.01;53.49;98882.59;6299429;28;20321;-67
2022/12/14 04:52:48;;;;;;;50.72;19.52;;;;;;;-14.90;53.20;98888.38;6299417;28;20036;-66
2022/12/14 04:56:00;;;;;;;47.67;17.27;;;;;;;-14.73;53.30;98889.50;6299049;28;20052;-66
2022/12/14 04:59:03;;;;;;;46.90;15.15;;;;;;;-14.62;53.10;98883.50;6299575;28;20045;-67
2022/12/14 05:02:10;;;;;;;;;;;;;;;-14.43;53.26;98900.69;6299643;28;20048;-67
2022/12/14 05:05:17;;;;;;;;;;;;;;;-14.34;53.15;98901.28;6298871;28;19924;-66
2022/12/14 05:08:48;;;;;;;34.67;14.80;;;;;;;-14.24;53.05;98902.75;6281246;28;19942;-67
2022/12/14 05:12:04;;;;;;;37.08;13.65;;;;;;;-14.10;52.39;98907.03;6298310;28;20052;-67
2022/12/14 05:15:20;;;;;;;34.95;10.02;;;;;;;-13.90;52.07;98902.38;6299038;28;20040;-67
2022/12/14 05:18:22;;;;;;;20.85;9.73;;;;;;;-13.78;52.23;98904.78;6297973;28;20048;-67
2022/12/14 05:24:44;;;;;;;17.58;8.32;;;;;;;-13.42;52.52;98926.44;6298547;28;20051;-68
2022/12/14 05:27:46;;;;;;;20.58;8.82;;;;;;;-13.22;52.36;98923.44;6298091;28;20425;-67
2022/12/14 05:30:50;;;;;;;21.15;8.75;;;;;;;-13.06;51.87;98926.91;6298234;28;20048;-68
2022/12/14 05:33:54;;;;;;;18.25;9.70;;;;;;;-12.94;51.54;98933.59;6298724;28;20041;-68
2022/12/14 05:36:55;;;;;;;21.30;10.70;;;;;;;-12.89;51.67;98924.59;6298082;28;20525;-67
2022/12/14 05:40:02;;;;;;;27.65;13.10;;;;;;;-12.79;51.38;98923.50;6298553;28;20044;-67
2022/12/14 05:43:13;;;;;;;39.47;15.35;;;;;;;-12.66;51.40;98914.94;6298361;28;20512;-66
2022/12/14 05:46:17;;;;;;;41.95;15.98;;;;;;;-12.53;51.61;98926.69;6298221;28;20040;-68
2022/12/14 05:49:19;;;;;;;41.88;15.80;;;;;;;-12.42;51.45;98925.66;6297913;28;20048;-67
2022/12/14 05:52:20;;;;;;;42.17;17.23;;;;;;;-12.30;51.67;98931.41;6297701;28;20529;-67
2022/12/14 05:55:21;;;;;;;44.05;18.30;;;;;;;-12.19;51.51;98936.25;6297018;28;20044;-66
2022/12/14 05:58:23;;;;;;;43.17;18.27;;;;;;;-12.10;51.09;98934.22;6297049;28;20536;-66
2022/12/14 06:01:27;;;;;;;40.60;16.55;;;;;;;-11.96;51.22;98928.25;6297705;28;20135;-66
2022/12/14 06:04:34;;;;;;;38.88;16.95;;;;;;;-11.83;50.76;98925.59;6297273;28;20044;-66
2022/12/14 06:07:41;;;;;;;38.08;18.50;;;;;;;-11.64;50.93;98934.22;6298065;28;20048;-67
2022/12/14 06:10:45;;;;;;;35.13;16.50;;;;;;;-11.52;50.91;98924.72;6297725;28;20033;-67
2022/12/14 06:13:47;;;;;;;37.00;15.15;;;;;;;-11.36;50.75;98924.75;6297813;28;20047;-66
2022/12/14 06:16:52;;;;;;;36.17;14.18;;;;;;;-11.23;50.32;98905.97;6297091;28;20051;-67
2022/12/14 06:19:57;;;;;;;37.33;15.70;;;;;;;-11.15;50.28;98913.97;6297596;28;20040;-66
2022/12/14 06:23:00;;;;;;;41.88;15.48;;;;;;;-11.04;50.34;98920.50;6297456;28;20048;-68
2022/12/14 06:26:03;;;;;;;37.67;15.65;;;;;;;-10.97;50.08;98914.97;6296552;28;20044;-66
2022/12/14 06:29:13;;;;;;;42.05;16.75;;;;;;;-10.91;50.47;98910.19;6297224;28;20040;-66
2022/12/14 06:32:16;;;;;;;40.20;15.35;;;;;;;-10.78;49.79;98916.81;6297048;28;20099;-67
2022/12/14 06:35:20;;;;;;;48.75;16.60;;;;;;;-10.67;49.94;98904.59;6297196;28;20123;-68
2022/12/14 06:38:24;;;;;;;40.20;16.95;;;;;;;-10.53;49.86;98902.75;6297186;28;20040;-67
2022/12/14 06:41:25;;;;;;;41.53;18.02;;;;;;;-10.43;49.40;98905.00;6296475;28;20049;-67
2022/12/14 06:44:34;;;;;;;46.25;19.98;;;;;;;-10.31;49.46;98899.63;6295782;28;20040;-67
2022/12/14 06:47:39;;;;;;;50.67;21.02;;;;;;;-10.17;49.32;98896.91;6296785;28;20135;-67
2022/12/14 06:50:47;;;;;;;46.67;20.70;;;;;;;-10.05;49.62;98893.22;6296824;28;20041;-67
2022/12/14 06:53:50;;;;;;;56.90;24.45;;;;;;;-9.87;49.27;98908.53;6296599;28;20052;-67
2022/12/14 06:56:54;;;;;;;61.65;27.17;;;;;;;-9.80;48.93;98905.47;6296452;28;20143;-66
2022/12/14 06:59:58;;;;;;;67.72;26.92;;;;;;;-9.68;49.11;98913.72;6296362;28;20060;-66
2022/12/14 07:03:01;;;;;;;68.07;26.02;;;;;;;-9.67;49.04;98902.72;6296303;28;20449;-67
2022/12/14 07:06:05;;;;;;;69.00;27.13;;;;;;;-9.45;48.84;98913.88;6295273;28;20057;-66
2022/12/14 07:09:12;;;;;;;73.47;26.02;;;;;;;-9.33;48.74;98917.03;6295653;28;20510;-66
2022/12/14 07:12:16;;;;;;;70.32;29.00;;;;;;;-9.23;48.41;98914.06;6296071;28;20051;-67
2022/12/14 07:15:20;;;;;;;73.95;28.05;;;;;;;-7.98;47.73;98915.16;6295514;28;20048;-67
2022/12/14 07:18:21;;;;;;;64.95;27.25;;;;;;;-2.84;40.26;98908.78;6295437;28;20045;-68
2022/12/14 07:21:24;;;;;;;66.15;25.63;;;;;;;2.25;33.14;98919.59;6295961;28;20515;-68
2022/12/14 07:24:29;;;;;;;67.78;24.98;;;;;;;6.27;28.33;98918.63;6296000;28;20040;-68
2022/12/14 07:27:32;;;;;;;59.88;26.60;;;;;;;9.03;25.28;98917.41;6296239;28;20040;-68
2022/12/14 07:30:34;;;;;;;63.55;28.63;;;;;;;10.95;23.68;98912.59;6294425;28;20059;-67
2022/12/14 07:33:40;;;;;;;71.72;30.80;;;;;;;12.11;22.48;98912.81;6296032;28;20044;-67
2022/12/14 07:36:44;;;;;;;62.17;31.55;;;;;;;12.97;21.35;98915.53;6296039;28;20488;-67
2022/12/14 07:39:48;;;;;;;70.22;32.03;;;;;;;14.05;20.00;98916.13;6295969;28;20040;-68
2022/12/14 07:42:54;;;;;;;58.47;28.42;;;;;;;14.78;18.38;98911.78;6295149;28;20056;-69
2022/12/14 07:46:03;;;;;;;54.47;26.65;;;;;;;15.27;18.16;98912.78;6295885;28;20040;-67
2022/12/14 07:49:05;;;;;;;55.65;25.10;;;;;;;16.15;17.35;98909.00;6295317;28;20051;-67
2022/12/14 07:52:06;;;;;;;47.55;24.02;;;;;;;16.97;16.45;98902.63;6295015;28;20051;-67
2022/12/14 07:55:08;;;;;;;57.13;26.98;;;;;;;17.40;15.84;98894.75;6295003;28;20044;-67
2022/12/14 07:58:09;;;;;;;59.80;29.10;;;;;;;17.92;15.37;98890.75;6294948;28;20053;-67
2022/12/14 08:01:14;;;;;;;64.53;30.92;;;;;;;18.37;14.09;98891.41;6295473;28;20426;-68
2022/12/14 08:04:18;;;;;;;86.15;35.15;;;;;;;18.68;13.69;98881.41;6295469;28;20048;-68
2022/12/14 08:07:26;;;;;;;85.57;39.55;;;;;;;18.89;13.38;98877.34;6295296;28;20526;-69
2022/12/14 08:10:32;;;;;;;87.75;40.38;;;;;;;18.63;13.48;98887.06;6295371;28;20425;-69
2022/12/14 08:13:37;;;;;;;79.20;40.72;;;;;;;18.61;13.54;98887.16;6294464;28;20518;-70
2022/12/14 08:16:45;;;;;;;83.65;41.28;;;;;;;18.76;13.02;98882.63;6296367;28;20494;-68
2022/12/14 08:19:46;;;;;;;94.63;42.58;;;;;;;18.72;12.97;98862.44;6300424;28;20075;-68
2022/12/14 08:22:50;;;;;;;;;;;;;;;19.89;13.86;98875.84;6300963;28;20048;-69
2022/12/14 08:25:54;;;;;;;123.53;59.90;;;;;;;19.48;12.33;98874.25;6299782;28;20408;-68
2022/12/14 08:28:56;;;;;;;121.30;66.47;;;;;;;19.29;12.54;98872.81;6300103;28;20044;-68
2022/12/14 08:32:03;;;;;;;136.15;72.50;;;;;;;19.46;12.37;98870.81;6300161;28;20056;-70
2022/12/14 08:35:08;;;;;;;137.82;72.60;;;;;;;19.86;12.56;98862.69;6300148;28;20046;-68
2022/12/14 08:38:17;;;;;;;149.73;78.55;;;;;;;20.12;11.51;98853.66;6299818;28;20045;-68
2022/12/14 08:41:27;;;;;;;159.60;84.30;;;;;;;20.34;11.85;98854.78;6299989;28;20119;-70
2022/12/14 08:44:31;;;;;;;158.07;84.68;;;;;;;20.13;11.82;98855.38;6299523;28;20041;-67
2022/12/14 08:47:35;;;;;;;159.18;90.22;;;;;;;19.94;12.13;98852.31;6299310;28;20052;-70
2022/12/14 08:50:41;;;;;;;163.75;89.22;;;;;;;19.76;11.72;98845.59;6298952;28;20131;-69
2022/12/14 08:53:49;;;;;;;157.20;91.22;;;;;;;19.68;12.06;98854.19;6298224;28;20054;-68
2022/12/14 08:56:52;;;;;;;173.35;97.10;;;;;;;19.41;12.15;98856.94;6299469;28;20040;-69
2022/12/14 08:59:59;;;;;;;176.05;97.65;;;;;;;19.14;12.31;98844.53;6299417;28;20063;-68
2022/12/14 09:03:04;;;;;;;171.98;100.97;;;;;;;19.13;12.07;98848.16;6298689;28;20064;-68
2022/12/14 09:06:10;;;;;;;182.50;101.22;;;;;;;18.87;12.11;98852.59;6298476;28;20528;-68
2022/12/14 09:09:15;;;;;;;180.35;105.15;;;;;;;18.64;12.09;98856.75;6298668;28;20052;-67
2022/12/14 09:12:23;;;;;;;193.68;108.95;;;;;;;17.99;12.13;98845.91;6299122;28;20044;-68
2022/12/14 09:15:30;;;;;;;191.32;110.22;;;;;;;17.55;12.29;98850.41;6299090;28;20048;-68
2022/12/14 09:18:36;;;;;;;201.50;115.03;;;;;;;17.20;12.32;98840.09;6298707;28;20289;-69
2022/12/14 09:21:43;;;;;;;214.38;117.50;;;;;;;17.30;12.53;98845.72;6298668;28;20056;-69
2022/12/14 09:24:51;;;;;;;184.00;106.07;;;;;;;17.32;12.43;98843.78;6298880;28;20498;-69
2022/12/14 09:28:00;;;;;;;164.07;93.20;;;;;;;17.02;12.35;98842.06;6298213;28;20468;-68
2022/12/14 09:31:10;;;;;;;137.43;77.50;;;;;;;17.14;12.29;98839.59;6298415;28;20107;-68
2022/12/14 09:34:16;;;;;;;124.07;70.60;;;;;;;17.36;12.23;98845.34;6298538;28;20049;-67
2022/12/14 09:37:20;;;;;;;121.28;67.90;;;;;;;17.44;12.21;98853.72;6297846;28;20135;-69
2022/12/14 09:40:28;;;;;;;123.00;64.60;;;;;;;17.26;12.03;98842.38;6298480;28;20049;-69
2022/12/14 09:43:39;;;;;;;117.68;63.15;;;;;;;17.09;12.09;98837.22;6298525;28;20546;-68
2022/12/14 09:47:09;;;;;;;133.85;69.47;;;;;;;16.93;12.23;98837.28;6298587;28;20044;-70
2022/12/14 09:50:15;;;;;;;139.82;73.72;;;;;;;16.44;12.82;98829.47;6285933;28;20395;-68
2022/12/14 09:53:19;;;;;;;138.90;75.60;;;;;;;16.24;12.84;98838.59;6297959;28;20387;-69
2022/12/14 09:56:24;;;;;;;136.02;74.75;;;;;;;15.84;13.23;98829.34;6298058;28;20075;-68
2022/12/14 09:59:28;;;;;;;129.25;72.57;;;;;;;15.65;13.13;98830.34;6296818;28;20056;-68
2022/12/14 10:02:42;;;;;;;131.10;72.40;;;;;;;15.02;13.39;98824.84;6297922;28;20410;-68
2022/12/14 10:05:52;;;;;;;128.13;71.07;;;;;;;12.01;14.99;98827.91;6298063;28;20174;-68
2022/12/14 10:09:15;;;;;;;147.68;79.00;;;;;;;8.21;17.79;98831.94;6295929;28;20155;-68
2022/12/14 10:12:21;;;;;;;150.73;80.32;;;;;;;5.29;20.42;98828.50;6297994;28;20044;-68
2022/12/14 10:15:48;;;;;;;160.10;84.07;;;;;;;3.31;22.27;98824.94;6295416;28;20048;-67
2022/12/14 10:19:05;;;;;;;166.10;87.07;;;;;;;1.73;23.81;98836.44;6297170;28;20056;-67
2022/12/14 10:22:15;;;;;;;163.02;85.22;;;;;;;0.61;24.98;98838.56;6297663;28;20047;-69
2022/12/14 10:25:23;;;;;;;160.00;86.18;;;;;;;-0.18;26.26;98835.34;6297166;28;20055;-69
2022/12/14 10:28:43;;;;;;;156.35;83.57;;;;;;;-0.77;27.42;98841.63;6297454;28;20053;-68
2022/12/14 10:32:15;;;;;;;164.52;84.00;;;;;;;-1.37;27.92;98844.31;6297162;28;20049;-69
2022/12/14 10:35:41;;;;;;;189.68;87.78;;;;;;;-1.97;28.20;98836.50;6290740;28;20433;-68
2022/12/14 10:38:58;;;;;;;185.23;90.63;;;;;;;-2.45;29.42;98840.84;6297168;28;20037;-69
2022/12/14 10:42:15;;;;;;;176.30;88.35;;;;;;;-2.85;29.62;98842.66;6297137;28;20493;-69
2022/12/14 10:45:30;;;;;;;159.30;86.55;;;;;;;-3.22;30.30;98841.03;6296088;28;20502;-68
2022/12/14 10:48:59;;;;;;;191.02;86.43;;;;;;;-3.60;30.51;98846.19;6296814;28;20048;-67
2022/12/14 10:52:07;;;;;;;164.63;76.15;;;;;;;-4.08;30.63;98842.50;6295718;28;20058;-68
2022/12/14 10:55:27;;;;;;;154.18;71.43;;;;;;;-4.38;31.10;98852.88;6295951;28;20068;-67
2022/12/14 10:58:32;;;;;;;135.20;63.38;;;;;;;-4.83;31.39;98847.38;6296148;28;20130;-68
2022/12/14 11:01:39;;;;;;;129.25;58.08;;;;;;;-5.13;31.71;98840.53;6296264;28;20041;-68
2022/12/14 11:04:48;;;;;;;125.15;55.10;;;;;;;-5.37;32.50;98847.53;6294921;28;20123;-67
2022/12/14 11:07:57;;;;;;;113.05;51.35;;;;;;;-5.58;33.19;98846.03;6295051;28;20549;-67
2022/12/14 11:11:09;;;;;;;102.55;45.20;;;;;;;-5.84;33.23;98837.56;6295918;28;20061;-68
2022/12/14 11:14:21;;;;;;;103.07;42.15;;;;;;;-6.14;33.53;98840.06;6296046;28;20100;-68
2022/12/14 11:17:39;;;;;;;91.60;39.80;;;;;;;-6.32;34.47;98846.28;6295642;28;20056;-68
2022/12/14 11:20:56;;;;;;;101.40;42.70;;;;;;;-6.57;35.04;98848.84;6295802;28;20510;-69
2022/12/14 11:23:58;;;;;;;96.68;42.63;;;;;;;-6.81;34.16;98852.31;6295974;28;20518;-68
2022/12/14 11:27:05;;;;;;;94.45;36.92;;;;;;;-7.03;35.08;98848.09;6295996;28;20186;-68
2022/12/14 11:30:15;;;;;;;84.68;34.40;;;;;;;-7.24;35.73;98847.34;6295411;28;20044;-68
2022/12/14 11:33:21;;;;;;;95.70;33.65;;;;;;;-7.42;35.44;98852.63;6295077;28;20521;-69
2022/12/14 11:36:25;;;;;;;82.28;30.63;;;;;;;-7.65;36.48;98850.88;6295267;28;20093;-67
2022/12/14 11:39:29;;;;;;;65.50;26.90;;;;;;;-7.92;35.95;98843.91;6295384;28;20056;-67
2022/12/14 11:42:33;;;;;;;69.18;26.77;;;;;;;-8.18;36.62;98843.72;6295650;28;20504;-69
2022/12/14 11:45:36;;;;;;;81.43;29.60;;;;;;;-8.42;36.63;98840.19;6295548;28;20417;-67
2022/12/14 11:48:47;;;;;;;83.47;30.67;;;;;;;-8.55;37.93;98837.94;6295335;28;20040;-66
2022/12/14 11:52:08;;;;;;;105.50;36.63;;;;;;;-8.73;38.38;98832.94;6295170;28;20052;-68
2022/12/14 11:55:20;;;;;;;100.95;35.35;;;;;;;-8.85;38.09;98843.50;6295273;28;20423;-68
2022/12/14 11:58:30;;;;;;;90.55;32.67;;;;;;;-8.93;38.60;98850.81;6295328;28;20044;-67
2022/12/14 12:01:32;;;;;;;98.72;34.20;;;;;;;-9.03;38.37;98856.31;6294781;28;20052;-67
2022/12/14 12:04:45;;;;;;;80.95;33.78;;;;;;;-9.05;40.10;98856.25;6295115;28;20044;-68
2022/12/14 12:07:49;;;;;;;100.38;36.33;;;;;;;-9.15;39.53;98849.00;6295022;28;20426;-68
2022/12/14 12:10:58;;;;;;;82.07;35.40;;;;;;;-9.27;40.51;98853.56;6295332;28;20041;-68
2022/12/14 12:14:36;;;;;;;85.30;35.78;;;;;;;-9.37;41.83;98856.50;6295288;28;20094;-67
2022/12/14 12:17:42;;;;;;;85.80;35.92;;;;;;;-9.50;41.41;98861.03;6269907;28;20052;-67
2022/12/14 12:20:58;;;;;;;85.85;34.33;;;;;;;-9.60;42.79;98858.84;6295192;28;20044;-67
2022/12/14 12:24:15;;;;;;;98.65;38.90;;;;;;;-9.71;41.98;98854.94;6293819;28;20055;-68
2022/12/14 12:27:19;;;;;;;82.40;33.78;;;;;;;-9.83;41.95;98851.84;6294383;28;20052;-68
2022/12/14 12:30:27;;;;;;;89.75;34.03;;;;;;;-9.97;42.10;98841.88;6295093;28;20048;-69
2022/12/14 12:33:43;;;;;;;100.45;36.40;;;;;;;-10.12;42.44;98846.25;6295149;28;20056;-68
2022/12/14 12:36:56;;;;;;;137.23;45.17;;;;;;;-10.33;42.21;98835.94;6294870;28;20044;-67
2022/12/14 12:40:12;;;;;;;132.63;43.40;;;;;;;-10.52;42.03;98838.38;6294935;28;20060;-68
2022/12/14 12:43:53;;;;;;;145.60;48.63;;;;;;;-10.74;42.39;98847.47;6294827;28;20044;-69
2022/12/14 12:47:05;;;;;;;156.20;50.90;;;;;;;-11.05;42.06;98844.19;6294232;28;20045;-68
2022/12/14 12:50:17;;;;;;;131.73;48.40;;;;;;;-11.31;42.86;98841.16;6294407;28;20048;-68
2022/12/14 12:53:33;;;;;;;114.40;38.38;;;;;;;-11.48;42.59;98847.91;6293776;28;20052;-67
2022/12/14 12:56:43;;;;;;;97.63;36.65;;;;;;;-11.68;42.64;98838.34;6294304;28;20059;-68
2022/12/14 12:59:54;;;;;;;121.03;45.58;;;;;;;-11.76;42.93;98848.97;6294894;28;20040;-67
2022/12/14 13:03:12;;;;;;;112.20;40.88;;;;;;;-11.76;43.39;98841.34;6294822;28;20048;-68
2022/12/14 13:06:22;;;;;;;131.73;43.80;;;;;;;-11.80;42.91;98844.53;6299322;28;20048;-68
2022/12/14 13:09:48;;;;;;;122.13;42.88;;;;;;;-11.88;43.21;98850.88;6298576;28;20045;-68
2022/12/14 13:13:02;;;;;;;122.43;40.97;;;;;;;-11.96;42.59;98847.03;6290317;28;20052;-67
2022/12/14 13:16:28;;;;;;;105.15;37.60;;;;;;;-12.07;42.82;98845.56;6298720;28;20148;-68
2022/12/14 13:19:35;;;;;;;99.45;33.25;;;;;;;-12.26;42.40;98836.94;6298801;28;20056;-67
2022/12/14 13:22:39;;;;;;;120.43;39.72;;;;;;;-12.45;42.25;98829.97;6298351;28;20056;-68
2022/12/14 13:26:09;;;;;;;109.45;34.75;;;;;;;-12.63;42.48;98823.84;6298826;28;20044;-69
2022/12/14 13:29:18;;;;;;;127.35;35.50;;;;;;;-12.77;42.99;98824.72;6298924;28;20395;-68
2022/12/14 13:32:51;;;;;;;125.35;37.35;;;;;;;-12.80;43.31;98835.53;6298187;28;20061;-68
2022/12/14 13:36:10;;;;;;;;;;;;;;;-12.85;42.63;98831.88;6299172;28;20040;-67
2022/12/14 13:40:02;;;;;;;115.30;38.08;;;;;;;-12.96;42.90;98832.94;6298839;28;19923;-68
2022/12/14 13:43:32;;;;;;;130.07;41.03;;;;;;;-13.07;42.55;98839.03;6196649;28;20460;-68
2022/12/14 13:46:36;;;;;;;104.07;34.60;;;;;;;-13.22;41.98;98834.78;6215541;28;20046;-68
2022/12/14 13:49:38;;;;;;;149.07;46.78;;;;;;;-13.32;42.42;98832.53;6297796;28;20045;-69
2022/12/14 13:52:44;;;;;;;;;;;;;;;-13.31;42.70;98834.28;6298822;28;20052;-68
2022/12/14 13:55:57;;;;;;;159.00;50.83;;;;;;;-13.41;42.95;98827.81;6297803;28;20066;-67
2022/12/14 13:59:16;;;;;;;179.77;54.15;;;;;;;-13.46;43.12;98834.25;6298277;28;20041;-67
2022/12/14 14:02:26;;;;;;;146.10;52.70;;;;;;;-13.45;43.39;98835.09;6297239;28;20059;-68
2022/12/14 14:05:42;;;;;;;161.43;53.45;;;;;;;-13.45;43.63;98830.03;6296794;28;20078;-68
2022/12/14 14:08:48;;;;;;;158.65;52.45;;;;;;;-13.47;43.23;98831.59;6297331;28;20044;-69
2022/12/14 14:12:32;;;;;;;169.20;58.08;;;;;;;-13.46;44.19;98828.31;6297892;28;20421;-68
2022/12/14 14:15:49;;;;;;;196.38;64.80;;;;;;;-13.47;43.71;98824.00;6297345;28;20045;-68
2022/12/14 14:19:11;;;;;;;194.52;62.88;;;;;;;-13.47;44.50;98824.00;6297240;28;20414;-67
2022/12/14 14:22:25;;;;;;;228.52;68.90;;;;;;;-13.47;44.30;98821.47;6297089;28;20048;-68
2022/12/14 14:25:32;;;;;;;158.00;51.65;;;;;;;-13.57;43.55;98831.06;6297087;28;20056;-68
2022/12/14 14:28:40;;;;;;;178.10;60.35;;;;;;;-13.70;43.88;98826.06;6297484;28;20036;-67
2022/12/14 14:32:03;;;;;;;201.75;67.65;;;;;;;-13.85;44.30;98825.09;6297320;28;20079;-67
2022/12/14 14:35:33;;;;;;;182.98;64.07;;;;;;;-14.00;44.46;98826.69;6296645;28;20040;-67
2022/12/14 14:38:38;;;;;;;196.00;66.43;;;;;;;-14.23;43.98;98818.53;6297282;28;20055;-68
2022/12/14 14:41:49;;;;;;;185.98;66.25;;;;;;;-14.24;44.75;98826.88;6296893;28;20048;-67